Weather at Kotabangun Airport

Public forecast

Using degrees Celsius for public forecast. Weather courtesy of forecast.io.

Closest aviation weather report (METAR) to Kotabangun Airport

Closest report is Sultan Aji Muhamad Sulaiman Airport, 63.0 nm (116.6 km) SSE. Retrieved 2021/11/29 08:30 UTC (34 minutes ago):

WALL 290830Z 05004KT 9999 FEW020 28/24 Q1006

Closest aviation forecast (TAF) to Kotabangun Airport

Closest forecast is Aji Pangeran Tumenggung Pranoto International Airport, 40.6 nm (75.1 km) E. Retrieved 2021/11/29 06:00 UTC (3 hours ago):

TAF WALS 290500Z 2906/2918 32005KT 9999 SCT018